ADDS TAF Board (Experimental) INFO

IDs: Format: Expanded Condensed

Updated at: 0402 UTC 15 Sep 2014

KDFW - Dallas-Ft Worth Intl, TX, US

Issued at 0259 UTC 15 Sep 2014
Time0353Z15/05Z15/06Z15/07Z15/08Z15/09Z15/10Z15/11Z15/12Z15/13Z15/14Z15/15Z15/16Z15/17Z
TypeOBSPRVLPRVLPRVLPRVLPRVLPRVLPRVLPRVLPRVLPRVLPRVLPRVLPRVL
VIS10>6>6>6>6>6>6>6>6>6>6>6>6>6
CIG2502002002002002002002002020202020150
CoverBKNBKNBKNBKNBKNBKNBKNBKNBKNBKNBKNBKNBKNBKN
FltCat--VFRVFRVFRVFRVFRVFRVFRMVFRMVFRMVFRMVFRMVFRVFR
WX----------------------------
WDirVRB100100100100100100100120120120120120150
WSpd03333333444445
WGst----------------------------
R13/31
XWndVRB222222211111-1
HWndVRB2222222444445
R17/35
XWndVRB3333333333332
HWndVRB1111111222224
R18/36
XWndVRB3333333333332
HWndVRB1111111222224
Raw TAF
KDFW 150259Z 1503/1606 10003KT P6SM SCT030 BKN200
  FM151200 12004KT P6SM BKN020
  FM151700 15005KT P6SM SCT030 BKN150


Raw METAR
KDFW 150353Z 00000KT 10SM FEW025 BKN250 23/17 A3013 RMK AO2 SLP198 T02280172

TAF Board Legend

Hazard VFR MVFR IFR LIFR
Visibility (sm) >5 3≤X≤5 1≤X<3 <1
Ceiling (100 ft) >30 10≤X≤30 5≤X<10 <5
Wind Speed (kt) <10 10≤X<20 20≤X<30 ≥30
Wind Gust (kt) <15 15≤X<25 25≤X<35 ≥35
Weather No Wx Reported VCTS,-TS,-FZRA TS,FZRA +TS,+FZRA


Page loaded:  04:02 UTC  |   09:02 PM Pacific  |   10:02 PM Mountain  |   11:02 PM Central  |   12:02 AM Eastern

 

ADVISORIES

FORECASTS

FORECASTS

OBSERVATIONS

USER TOOLS

ABOUT US